createdAt,value
2023-03-13T00:08:26.821Z,44.28
2023-03-13T00:18:32.159Z,44.33
2023-03-13T00:28:37.260Z,44.35
2023-03-13T00:38:42.834Z,44.42
2023-03-13T00:48:48.180Z,44.77
2023-03-13T00:58:53.717Z,44.82
2023-03-13T01:08:59.100Z,44.78
2023-03-13T01:19:04.291Z,44.75
2023-03-13T01:29:09.699Z,44.77
2023-03-13T01:39:15.228Z,44.82
2023-03-13T01:49:20.622Z,44.84
2023-03-13T01:59:25.917Z,44.86
2023-03-13T02:09:31.610Z,45.01
2023-03-13T02:19:36.974Z,45.04
2023-03-13T02:29:42.374Z,45.08
2023-03-13T02:39:47.781Z,45.15
2023-03-13T02:49:52.990Z,45.16
2023-03-13T02:59:58.389Z,45.16
2023-03-13T03:10:03.772Z,45.18
2023-03-13T03:20:09.197Z,45.21
2023-03-13T03:30:14.557Z,45.27
2023-03-13T03:40:19.830Z,45.33
2023-03-13T03:50:25.293Z,45.38
2023-03-13T04:00:30.345Z,45.98
2023-03-13T04:10:35.679Z,45.63
2023-03-13T04:20:41.597Z,45.68
2023-03-13T04:30:47.088Z,45.68
2023-03-13T04:40:52.140Z,45.68
2023-03-13T04:50:57.189Z,45.63
2023-03-13T05:01:02.656Z,45.64
2023-03-13T05:11:08.113Z,45.59
2023-03-13T05:21:13.422Z,45.64
2023-03-13T05:31:18.951Z,45.65
2023-03-13T05:41:24.431Z,45.68
2023-03-13T05:51:29.923Z,45.68
2023-03-13T06:01:34.918Z,45.71
2023-03-13T06:11:40.014Z,45.78
2023-03-13T06:21:45.240Z,45.81
2023-03-13T06:31:50.710Z,45.82
2023-03-13T06:41:56.002Z,45.88
2023-03-13T06:52:00.911Z,45.85
2023-03-13T07:02:06.389Z,45.89
2023-03-13T07:12:11.651Z,45.89
2023-03-13T07:22:17.203Z,46.09
2023-03-13T07:32:22.475Z,46.09
2023-03-13T07:42:28.476Z,46.06
2023-03-13T07:52:33.847Z,46.06
2023-03-13T08:02:39.149Z,46.09
2023-03-13T08:12:44.978Z,46.09
2023-03-13T08:22:50.031Z,46.13
2023-03-13T08:32:55.365Z,46.14
2023-03-13T08:43:00.430Z,46.15
2023-03-13T08:53:05.543Z,46.35
2023-03-13T09:03:11.761Z,46.27
2023-03-13T09:13:17.195Z,46.02
2023-03-13T09:23:22.815Z,45.92
2023-03-13T09:33:28.463Z,45.75
2023-03-13T09:43:34.200Z,45.76
2023-03-13T09:53:39.637Z,45.61
2023-03-13T10:03:45.251Z,45.53
2023-03-13T10:13:50.406Z,45.44
2023-03-13T10:23:55.507Z,45.69
2023-03-13T10:34:00.745Z,46.32
2023-03-13T10:44:06.289Z,45.69
2023-03-13T10:54:11.667Z,45.65
2023-03-13T11:04:16.815Z,45.61
2023-03-13T11:14:22.646Z,45.71
2023-03-13T11:24:28.340Z,45.30
2023-03-13T11:34:34.041Z,45.63
2023-03-13T11:44:39.526Z,45.17
2023-03-13T11:54:44.899Z,45.38
2023-03-13T12:04:49.715Z,45.39
2023-03-13T12:14:55.859Z,45.40
2023-03-13T12:25:00.995Z,46.00
2023-03-13T12:35:07.013Z,45.27
2023-03-13T12:45:12.982Z,45.09
2023-03-13T12:55:18.247Z,45.41
2023-03-13T13:05:23.447Z,45.23
2023-03-13T13:16:48.383Z,45.62
2023-03-13T13:26:53.162Z,46.29
2023-03-13T13:36:58.309Z,45.62
2023-03-13T13:47:03.857Z,46.80
2023-03-13T13:57:09.232Z,46.50
2023-03-13T14:07:14.811Z,47.19
2023-03-13T14:18:39.708Z,48.02
2023-03-13T14:28:44.398Z,47.90
2023-03-13T14:38:50.045Z,47.66
2023-03-13T14:48:55.545Z,48.53
2023-03-13T14:59:01.134Z,48.07
2023-03-13T15:09:06.467Z,48.45
2023-03-13T15:19:12.955Z,47.98
2023-03-13T15:29:18.787Z,47.95
2023-03-13T15:39:24.328Z,48.00
2023-03-13T15:49:30.051Z,47.74
2023-03-13T15:59:37.112Z,47.69
2023-03-13T16:09:42.517Z,47.72
2023-03-13T16:19:48.823Z,47.99
2023-03-13T16:29:54.367Z,48.43
2023-03-13T16:39:59.746Z,47.39
2023-03-13T16:50:04.962Z,47.24
2023-03-13T17:00:10.378Z,47.31
2023-03-13T17:10:16.021Z,47.60
2023-03-13T17:20:21.348Z,47.41
2023-03-13T17:30:27.506Z,47.10
2023-03-13T17:40:33.203Z,47.01
2023-03-13T17:50:38.576Z,47.06
2023-03-13T18:00:43.942Z,47.21
2023-03-13T18:10:50.392Z,47.23
2023-03-13T18:20:55.795Z,48.02
2023-03-13T18:31:01.321Z,47.23
2023-03-13T18:41:08.413Z,47.67
2023-03-13T18:51:14.932Z,46.98
2023-03-13T19:01:20.247Z,47.13
2023-03-13T19:11:25.482Z,46.75
2023-03-13T19:21:30.934Z,47.08
2023-03-13T19:31:36.223Z,46.92
2023-03-13T19:41:41.994Z,46.75
2023-03-13T19:51:47.457Z,46.88
2023-03-13T20:01:52.672Z,46.70
2023-03-13T20:11:58.240Z,46.57
2023-03-13T20:22:03.592Z,46.79
2023-03-13T20:32:08.961Z,46.76
2023-03-13T20:42:14.687Z,46.77
2023-03-13T20:52:20.604Z,46.80
2023-03-13T21:02:26.222Z,46.81
2023-03-13T21:12:31.544Z,46.84
2023-03-13T21:22:36.345Z,47.00
2023-03-13T21:32:41.847Z,47.02
2023-03-13T21:42:47.311Z,47.01
2023-03-13T21:52:52.555Z,47.08
2023-03-13T22:02:57.858Z,47.22
2023-03-13T22:13:03.035Z,47.28
2023-03-13T22:23:08.108Z,47.26
2023-03-13T22:33:13.670Z,47.28
2023-03-13T22:43:19.020Z,47.31
2023-03-13T22:53:24.360Z,47.34
2023-03-13T23:03:30.239Z,47.63
2023-03-13T23:13:35.840Z,47.73
2023-03-13T23:23:41.273Z,47.80
2023-03-13T23:33:46.741Z,47.79
2023-03-13T23:43:52.213Z,48.15
2023-03-13T23:53:57.741Z,47.61
